createdAt,value
2022-10-01T00:01:55.003Z,47.79
2022-10-01T00:06:55.196Z,49.99
2022-10-01T00:11:54.380Z,40.32
2022-10-01T00:16:52.617Z,38.29
2022-10-01T00:21:52.831Z,37.66
2022-10-01T00:26:51.033Z,37.04
2022-10-01T00:31:50.379Z,36.75
2022-10-01T00:36:49.417Z,36.94
2022-10-01T00:41:48.612Z,36.45
2022-10-01T00:46:48.851Z,37.04
2022-10-01T00:51:48.017Z,36.27
2022-10-01T00:56:47.191Z,36.98
2022-10-01T01:01:45.383Z,37.73
2022-10-01T01:06:45.574Z,37.83
2022-10-01T01:11:44.789Z,39.08
2022-10-01T01:16:43.958Z,39.60
2022-10-01T01:21:43.206Z,39.72
2022-10-01T01:26:41.437Z,40.14
2022-10-01T01:31:41.664Z,40.95
2022-10-01T01:36:40.846Z,41.36
2022-10-01T01:41:39.001Z,41.66
2022-10-01T01:46:38.184Z,41.97
2022-10-01T01:51:37.355Z,42.38
2022-10-01T01:56:36.518Z,42.49
2022-10-01T02:01:38.243Z,42.69
2022-10-01T02:06:35.965Z,42.71
2022-10-01T02:11:35.371Z,43.16
2022-10-01T02:16:33.352Z,43.85
2022-10-01T02:21:32.686Z,43.85
2022-10-01T02:26:32.687Z,44.06
2022-10-01T02:31:30.991Z,43.54
2022-10-01T02:36:30.089Z,43.05
2022-10-01T02:41:29.278Z,43.27
2022-10-01T02:46:29.475Z,43.18
2022-10-01T02:51:27.652Z,43.05
2022-10-01T02:56:27.855Z,43.70
2022-10-01T03:01:26.104Z,42.46
2022-10-01T03:06:25.285Z,42.54
2022-10-01T03:11:24.470Z,41.60
2022-10-01T03:16:24.730Z,41.05
2022-10-01T03:21:22.905Z,41.24
2022-10-01T03:26:23.095Z,41.02
2022-10-01T03:31:21.350Z,40.42
2022-10-01T03:36:21.567Z,40.52
2022-10-01T03:41:20.767Z,39.54
2022-10-01T03:46:18.949Z,40.28
2022-10-01T03:51:19.939Z,41.55
2022-10-01T03:56:17.391Z,41.53
2022-10-01T04:01:17.623Z,40.83
2022-10-01T04:06:15.799Z,41.05
2022-10-01T04:11:14.960Z,41.30
2022-10-01T04:16:14.163Z,41.31
2022-10-01T04:21:13.301Z,41.69
2022-10-01T04:26:12.462Z,41.60
2022-10-01T04:31:11.722Z,40.28
2022-10-01T04:36:10.993Z,40.44
2022-10-01T04:41:11.191Z,39.62
2022-10-01T04:46:09.333Z,39.20
2022-10-01T04:51:08.492Z,39.48
2022-10-01T04:56:07.674Z,38.46
2022-10-01T05:01:06.866Z,38.17
2022-10-01T05:06:06.059Z,38.67
2022-10-01T05:11:06.380Z,38.75
2022-10-01T05:16:04.720Z,38.35
2022-10-01T05:21:03.819Z,38.67
2022-10-01T05:26:03.139Z,39.18
2022-10-01T05:31:02.550Z,38.68
2022-10-01T05:36:01.692Z,39.60
2022-10-01T05:41:02.003Z,39.00
2022-10-01T05:46:02.433Z,40.32
2022-10-01T05:50:59.527Z,40.22
2022-10-01T05:55:58.820Z,40.23
2022-10-01T06:00:58.133Z,40.44
2022-10-01T06:05:59.445Z,40.23
2022-10-01T06:10:56.748Z,39.90
2022-10-01T06:15:57.080Z,39.50
2022-10-01T06:20:56.390Z,38.48
2022-10-01T06:25:54.701Z,38.05
2022-10-01T06:30:55.057Z,37.75
2022-10-01T06:35:54.149Z,37.63
2022-10-01T06:40:53.451Z,37.53
2022-10-01T06:45:51.803Z,37.73
2022-10-01T06:50:52.888Z,37.43
2022-10-01T06:55:50.176Z,37.53
2022-10-01T07:00:49.591Z,37.75
2022-10-01T07:05:47.714Z,38.05
2022-10-01T07:10:49.037Z,38.25
2022-10-01T07:15:47.353Z,38.25
2022-10-01T07:20:47.656Z,38.76
2022-10-01T07:25:46.979Z,38.89
2022-10-01T07:30:45.293Z,39.18
2022-10-01T07:35:45.598Z,39.08
2022-10-01T07:40:44.910Z,39.28
2022-10-01T07:45:43.317Z,39.53
2022-10-01T07:50:42.450Z,37.28
2022-10-01T07:55:41.771Z,35.32
2022-10-01T08:00:42.115Z,33.17
2022-10-01T08:05:40.297Z,33.98
2022-10-01T08:10:39.420Z,33.59
2022-10-01T08:15:40.713Z,34.00
2022-10-01T08:20:37.000Z,33.61
2022-10-01T08:25:38.339Z,34.00
2022-10-01T08:30:36.623Z,33.01
2022-10-01T08:35:35.950Z,32.89
2022-10-01T08:40:35.253Z,33.29
2022-10-01T08:45:35.558Z,33.42
2022-10-01T08:50:33.813Z,34.20
2022-10-01T08:55:35.071Z,33.92
2022-10-01T09:00:33.356Z,33.92
2022-10-01T09:05:31.631Z,33.67
2022-10-01T09:10:31.995Z,32.70
2022-10-01T09:15:30.133Z,32.39
2022-10-01T09:20:29.431Z,32.32
2022-10-01T09:25:29.710Z,32.43
2022-10-01T09:30:27.996Z,32.85
2022-10-01T09:35:29.297Z,33.45
2022-10-01T09:40:27.573Z,33.26
2022-10-01T09:45:26.978Z,32.85
2022-10-01T09:50:25.139Z,32.34
2022-10-01T09:55:24.401Z,32.76
2022-10-01T10:00:22.717Z,33.78
2022-10-01T10:05:23.832Z,35.44
2022-10-01T10:10:25.576Z,34.89
2022-10-01T10:15:22.244Z,35.19
2022-10-01T10:20:21.575Z,35.97
2022-10-01T10:25:19.882Z,35.46
2022-10-01T10:30:19.247Z,35.44
2022-10-01T10:35:19.375Z,34.10
2022-10-01T10:40:17.664Z,33.80
2022-10-01T10:45:16.998Z,33.82
2022-10-01T10:50:17.217Z,35.00
2022-10-01T10:55:15.423Z,35.42
2022-10-01T11:00:15.637Z,35.42
2022-10-01T11:05:14.865Z,35.12
2022-10-01T11:10:13.108Z,35.04
2022-10-01T11:15:12.279Z,34.39
2022-10-01T11:20:11.464Z,33.89
2022-10-01T11:25:10.669Z,33.39
2022-10-01T11:30:10.852Z,32.90
2022-10-01T11:35:09.039Z,32.88
2022-10-01T11:40:08.236Z,32.57
2022-10-01T11:45:10.417Z,32.78
2022-10-01T11:50:06.570Z,32.52
2022-10-01T11:55:05.794Z,34.22
2022-10-01T12:00:04.956Z,34.63
2022-10-01T12:05:06.190Z,34.51
2022-10-01T12:10:03.339Z,34.83
2022-10-01T12:15:06.478Z,35.02
2022-10-01T12:20:01.786Z,35.02
2022-10-01T12:25:00.949Z,33.89
2022-10-01T12:30:00.124Z,34.20
2022-10-01T12:34:59.313Z,34.92
2022-10-01T12:39:59.527Z,35.85
2022-10-01T12:44:58.717Z,36.07
2022-10-01T12:49:56.890Z,36.48
2022-10-01T12:54:57.076Z,36.68
2022-10-01T12:59:55.237Z,36.68
2022-10-01T13:04:55.433Z,36.58
2022-10-01T13:09:53.617Z,37.41
2022-10-01T13:14:52.801Z,37.19
2022-10-01T13:19:51.985Z,36.99
2022-10-01T13:24:52.177Z,36.99
2022-10-01T13:29:51.350Z,37.09
2022-10-01T13:34:50.538Z,37.70
2022-10-01T13:39:48.729Z,37.51
2022-10-01T13:44:47.913Z,38.02
2022-10-01T13:49:47.099Z,37.60
2022-10-01T13:54:47.293Z,35.85
2022-10-01T13:59:45.516Z,36.58
2022-10-01T14:04:44.702Z,36.58
2022-10-01T14:09:43.908Z,37.29
2022-10-01T14:14:43.129Z,37.51
2022-10-01T14:19:42.317Z,37.92
2022-10-01T14:24:42.482Z,38.00
2022-10-01T14:29:40.662Z,38.22
2022-10-01T14:34:39.824Z,35.75
2022-10-01T14:39:40.987Z,35.55
2022-10-01T14:44:38.164Z,35.55
2022-10-01T14:49:37.362Z,36.16
2022-10-01T14:54:37.540Z,36.26
2022-10-01T14:59:35.754Z,35.97
2022-10-01T15:04:34.945Z,36.07
2022-10-01T15:09:34.161Z,36.26
2022-10-01T15:14:33.353Z,36.15
2022-10-01T15:19:32.557Z,37.17
2022-10-01T15:24:32.738Z,37.39
2022-10-01T15:29:30.926Z,36.68
2022-10-01T15:34:30.118Z,36.77
2022-10-01T15:39:30.324Z,37.05
2022-10-01T15:44:28.644Z,37.45
2022-10-01T15:49:27.815Z,39.01
2022-10-01T15:54:29.023Z,40.03
2022-10-01T15:59:27.183Z,39.92
2022-10-01T16:04:25.350Z,39.63
2022-10-01T16:09:24.528Z,41.46
2022-10-01T16:14:23.823Z,40.22
2022-10-01T16:19:25.014Z,40.24
2022-10-01T16:24:22.177Z,37.67
2022-10-01T16:29:21.331Z,37.55
2022-10-01T16:34:20.505Z,38.90
2022-10-01T16:39:20.066Z,38.38
2022-10-01T16:44:19.010Z,37.95
2022-10-01T16:49:18.167Z,37.26
2022-10-01T16:54:18.326Z,36.82
2022-10-01T16:59:17.538Z,36.21
2022-10-01T17:04:15.783Z,36.10
2022-10-01T17:09:13.977Z,35.99
2022-10-01T17:14:14.347Z,35.89
2022-10-01T17:19:12.373Z,37.10
2022-10-01T17:24:13.578Z,38.44
2022-10-01T17:29:11.751Z,37.83
2022-10-01T17:34:11.916Z,38.03
2022-10-01T17:39:11.070Z,38.66
2022-10-01T17:44:09.248Z,37.95
2022-10-01T17:49:09.406Z,37.12
2022-10-01T17:54:07.562Z,37.41
2022-10-01T17:59:06.752Z,36.92
2022-10-01T18:04:05.917Z,38.44
2022-10-01T18:09:06.104Z,39.79
2022-10-01T18:14:05.260Z,39.07
2022-10-01T18:29:00.955Z,40.19
2022-10-01T18:34:01.172Z,39.15
2022-10-01T18:39:00.373Z,39.37
2022-10-01T18:44:01.567Z,39.37
2022-10-01T18:48:59.745Z,39.17
2022-10-01T18:53:57.913Z,40.11
2022-10-01T18:58:57.103Z,41.83
2022-10-01T19:03:55.319Z,42.43
2022-10-01T19:08:58.545Z,42.03
2022-10-01T19:13:54.708Z,41.61
2022-10-01T19:18:54.889Z,43.16
2022-10-01T19:23:53.057Z,42.23
2022-10-01T19:28:52.594Z,40.70
2022-10-01T19:33:51.549Z,39.47
2022-10-01T19:38:50.781Z,37.81
2022-10-01T19:43:48.993Z,37.30
2022-10-01T19:48:50.197Z,38.42
2022-10-01T19:53:48.417Z,37.91
2022-10-01T19:58:47.604Z,38.94
2022-10-01T20:03:47.787Z,39.85
2022-10-01T20:08:45.956Z,40.48
2022-10-01T20:13:47.137Z,40.17
2022-10-01T20:18:45.369Z,40.98
2022-10-01T20:23:44.557Z,40.68
2022-10-01T20:28:42.735Z,40.56
2022-10-01T20:33:41.902Z,40.88
2022-10-01T20:38:41.118Z,41.08
2022-10-01T20:43:41.294Z,41.09
2022-10-01T20:48:39.489Z,40.58
2022-10-01T20:53:39.653Z,41.52
2022-10-01T20:58:37.839Z,39.87
2022-10-01T21:03:37.007Z,41.06
2022-10-01T21:08:37.209Z,39.85
2022-10-01T21:13:35.377Z,39.75
2022-10-01T21:18:33.577Z,38.51
2022-10-01T21:23:33.793Z,37.16
2022-10-01T21:28:32.013Z,37.46
2022-10-01T21:33:33.242Z,36.87
2022-10-01T21:38:30.500Z,37.56
2022-10-01T21:43:30.644Z,39.51
2022-10-01T21:48:31.817Z,39.00
2022-10-01T21:53:29.316Z,39.28
2022-10-01T21:58:28.129Z,40.52
2022-10-01T22:03:27.339Z,41.04
2022-10-01T22:08:27.565Z,40.94
2022-10-01T22:13:24.783Z,41.46
2022-10-01T22:18:25.006Z,41.33
2022-10-01T22:23:24.196Z,41.33
2022-10-01T22:28:23.405Z,41.85
2022-10-01T22:33:24.573Z,41.36
2022-10-01T22:38:21.816Z,41.77
2022-10-01T22:43:21.990Z,39.20
2022-10-01T22:48:20.182Z,40.92
2022-10-01T22:53:19.398Z,41.75
2022-10-01T22:58:18.591Z,40.33
2022-10-01T23:03:17.791Z,41.24
2022-10-01T23:08:17.994Z,40.44
2022-10-01T23:13:17.201Z,38.80
2022-10-01T23:18:16.440Z,38.80
2022-10-01T23:23:15.676Z,37.66
2022-10-01T23:28:13.906Z,38.47
2022-10-01T23:33:13.100Z,39.18
2022-10-01T23:38:13.297Z,40.41
2022-10-01T23:43:12.458Z,41.66
2022-10-01T23:48:15.268Z,41.66
2022-10-01T23:53:10.821Z,41.16
2022-10-01T23:58:08.982Z,40.20
